WAT46 SKRG-MROC
Flight info
| Callsign | WAT46 |
|---|---|
| Flight time | N/A |
| Altitude | 32000 |
| Route | OPMEL3C/01 TBG DCT ISEBA CUARE4I |
| Aircraft | E135/M-SDFGIRW/S |
Departure
| Time | N/A |
|---|---|
| Airport | Jose Maria Córdova International Airport (SKRG) |
Arrival
| Time | 2026-04-28 03:05 |
|---|---|
| Airport | Juan Santamaría International Airport (MROC) |
| Time | Latitude | Longitude | Altitude | Speed | Heading |
|---|---|---|---|---|---|
| 2026-04-28 02:42 | 8.93368 | -80.19154 | 32022 ft | 434 kts | 280° |
| 2026-04-28 02:43 | 9.11497 | -80.98508 | 31987 ft | 434 kts | 279° |
| 2026-04-28 02:43 | 9.23245 | -81.46656 | 31703 ft | 433 kts | 275° |
| 2026-04-28 02:43 | 9.29664 | -81.94839 | 31728 ft | 433 kts | 282° |
| 2026-04-28 02:43 | 9.49195 | -82.39792 | 32185 ft | 432 kts | 284° |
| 2026-04-28 02:44 | 9.49472 | -82.42784 | 31980 ft | 421 kts | 261° |
| 2026-04-28 02:44 | 9.48150 | -82.47504 | 31964 ft | 420 kts | 251° |
| 2026-04-28 02:45 | 9.47064 | -82.54295 | 31653 ft | 432 kts | 275° |
| 2026-04-28 02:45 | 9.47392 | -82.56269 | 31334 ft | 428 kts | 277° |
| 2026-04-28 02:45 | 9.48161 | -82.60086 | 30623 ft | 401 kts | 279° |
| 2026-04-28 02:45 | 9.48751 | -82.62794 | 30089 ft | 389 kts | 279° |
| 2026-04-28 02:46 | 9.49147 | -82.64587 | 29742 ft | 389 kts | 279° |
| 2026-04-28 02:46 | 9.49741 | -82.67265 | 29244 ft | 393 kts | 279° |
| 2026-04-28 02:46 | 9.50553 | -82.70901 | 28576 ft | 394 kts | 279° |
| 2026-04-28 02:46 | 9.51151 | -82.73594 | 28065 ft | 392 kts | 279° |
| 2026-04-28 02:47 | 9.51750 | -82.76285 | 27265 ft | 391 kts | 280° |
| 2026-04-28 02:47 | 9.52342 | -82.78933 | 26477 ft | 386 kts | 280° |
| 2026-04-28 02:47 | 9.52729 | -82.80676 | 25954 ft | 383 kts | 281° |
| 2026-04-28 02:47 | 9.53505 | -82.84152 | 24901 ft | 378 kts | 281° |
| 2026-04-28 02:48 | 9.53886 | -82.85867 | 24377 ft | 375 kts | 281° |
| 2026-04-28 02:48 | 9.54562 | -82.88390 | 23592 ft | 371 kts | 288° |
| 2026-04-28 02:48 | 9.55360 | -82.90856 | 22917 ft | 364 kts | 287° |
| 2026-04-28 02:48 | 9.56377 | -82.94047 | 22429 ft | 351 kts | 287° |
| 2026-04-28 02:49 | 9.57127 | -82.96401 | 22070 ft | 353 kts | 287° |
| 2026-04-28 02:49 | 9.57877 | -82.98764 | 21709 ft | 353 kts | 287° |
| 2026-04-28 02:49 | 9.58371 | -83.00321 | 21465 ft | 353 kts | 287° |
| 2026-04-28 02:49 | 9.59381 | -83.03499 | 20990 ft | 350 kts | 287° |
| 2026-04-28 02:50 | 9.59876 | -83.05064 | 20754 ft | 349 kts | 288° |
| 2026-04-28 02:50 | 9.60858 | -83.08163 | 20296 ft | 347 kts | 288° |
| 2026-04-28 02:50 | 9.61594 | -83.10485 | 19951 ft | 345 kts | 288° |
| 2026-04-28 02:50 | 9.62319 | -83.12771 | 19614 ft | 344 kts | 288° |
| 2026-04-28 02:51 | 9.63050 | -83.15079 | 19261 ft | 342 kts | 288° |
| 2026-04-28 02:51 | 9.63777 | -83.17376 | 18915 ft | 340 kts | 289° |
| 2026-04-28 02:51 | 9.64258 | -83.18887 | 18690 ft | 339 kts | 288° |
| 2026-04-28 02:51 | 9.64968 | -83.21137 | 18352 ft | 337 kts | 289° |
| 2026-04-28 02:52 | 9.70456 | -83.38490 | 16059 ft | 322 kts | 289° |
| 2026-04-28 02:52 | 9.71135 | -83.40639 | 16063 ft | 324 kts | 289° |
| 2026-04-28 02:52 | 9.71598 | -83.42097 | 16055 ft | 325 kts | 289° |
| 2026-04-28 02:52 | 9.72514 | -83.44997 | 16039 ft | 326 kts | 289° |
| 2026-04-28 02:53 | 9.75094 | -83.53185 | 15981 ft | 326 kts | 288° |
| 2026-04-28 02:53 | 9.75333 | -83.54693 | 15995 ft | 328 kts | 270° |
| 2026-04-28 02:53 | 9.74901 | -83.57744 | 15828 ft | 332 kts | 264° |
| 2026-04-28 02:53 | 9.74667 | -83.60054 | 15361 ft | 328 kts | 266° |
| 2026-04-28 02:54 | 9.74474 | -83.62353 | 14897 ft | 323 kts | 266° |
| 2026-04-28 02:54 | 9.74304 | -83.64590 | 14436 ft | 320 kts | 267° |
| 2026-04-28 02:54 | 9.74194 | -83.66082 | 14126 ft | 318 kts | 266° |
| 2026-04-28 02:54 | 9.74033 | -83.68307 | 13659 ft | 316 kts | 266° |
| 2026-04-28 02:55 | 9.73821 | -83.71269 | 13048 ft | 313 kts | 266° |
| 2026-04-28 02:55 | 9.73663 | -83.73460 | 12586 ft | 311 kts | 266° |
| 2026-04-28 02:55 | 9.73507 | -83.75636 | 12156 ft | 308 kts | 267° |
| 2026-04-28 02:55 | 9.73354 | -83.77775 | 12081 ft | 305 kts | 267° |
| 2026-04-28 02:56 | 9.73199 | -83.79930 | 12085 ft | 307 kts | 267° |
| 2026-04-28 02:56 | 9.73095 | -83.81388 | 12101 ft | 308 kts | 266° |
| 2026-04-28 02:56 | 9.73003 | -83.83544 | 12100 ft | 308 kts | 277° |
| 2026-04-28 02:56 | 9.73765 | -83.85546 | 12110 ft | 305 kts | 306° |
| 2026-04-28 02:57 | 9.75230 | -83.87093 | 11708 ft | 305 kts | 316° |
| 2026-04-28 02:57 | 9.77218 | -83.89078 | 11192 ft | 299 kts | 316° |
| 2026-04-28 02:57 | 9.78221 | -83.90081 | 10961 ft | 297 kts | 316° |
| 2026-04-28 02:57 | 9.80175 | -83.92035 | 10536 ft | 295 kts | 316° |
| 2026-04-28 02:58 | 9.81631 | -83.93491 | 10262 ft | 294 kts | 316° |
| 2026-04-28 02:58 | 9.82600 | -83.94460 | 10137 ft | 293 kts | 316° |
| 2026-04-28 02:58 | 9.84500 | -83.96365 | 9809 ft | 277 kts | 317° |
| 2026-04-28 02:58 | 9.85837 | -83.97703 | 9538 ft | 265 kts | 317° |
| 2026-04-28 02:59 | 9.86694 | -83.98561 | 9354 ft | 258 kts | 317° |
| 2026-04-28 02:59 | 9.87948 | -83.99818 | 9096 ft | 248 kts | 317° |
| 2026-04-28 02:59 | 9.89549 | -84.01419 | 8896 ft | 240 kts | 317° |
| 2026-04-28 02:59 | 9.90564 | -84.02673 | 8751 ft | 223 kts | 303° |
| 2026-04-28 03:00 | 9.91362 | -84.03970 | 8466 ft | 215 kts | 303° |
| 2026-04-28 03:00 | 9.92156 | -84.05271 | 7973 ft | 216 kts | 303° |
| 2026-04-28 03:00 | 9.92936 | -84.06551 | 7484 ft | 209 kts | 303° |
| 2026-04-28 03:00 | 9.93709 | -84.07816 | 7011 ft | 211 kts | 304° |
| 2026-04-28 03:01 | 9.94526 | -84.09023 | 6459 ft | 206 kts | 316° |
| 2026-04-28 03:01 | 9.95266 | -84.09594 | 6153 ft | 191 kts | 332° |
| 2026-04-28 03:01 | 9.96779 | -84.10091 | 6065 ft | 162 kts | 357° |
| 2026-04-28 03:01 | 9.97893 | -84.10072 | 5861 ft | 157 kts | 5° |
| 2026-04-28 03:02 | 9.98975 | -84.10234 | 5598 ft | 156 kts | 347° |
| 2026-04-28 03:02 | 9.99977 | -84.10691 | 5347 ft | 159 kts | 330° |
| 2026-04-28 03:02 | 10.00819 | -84.11437 | 5100 ft | 162 kts | 313° |
| 2026-04-28 03:02 | 10.01242 | -84.12057 | 4936 ft | 163 kts | 301° |
| 2026-04-28 03:03 | 10.01627 | -84.13113 | 4709 ft | 149 kts | 283° |
| 2026-04-28 03:03 | 10.01668 | -84.14424 | 4318 ft | 135 kts | 260° |
| 2026-04-28 03:03 | 10.01430 | -84.15361 | 4078 ft | 136 kts | 253° |
| 2026-04-28 03:03 | 10.01111 | -84.16270 | 3872 ft | 138 kts | 248° |
| 2026-04-28 03:04 | 10.00776 | -84.17179 | 3655 ft | 138 kts | 249° |
| 2026-04-28 03:04 | 10.00549 | -84.17787 | 3526 ft | 137 kts | 248° |
| 2026-04-28 03:04 | 10.00101 | -84.18993 | 3298 ft | 137 kts | 248° |
| 2026-04-28 03:04 | 9.99757 | -84.19893 | 3091 ft | 135 kts | 248° |
| 2026-04-28 03:05 | 9.99438 | -84.20737 | 3009 ft | 95 kts | 250° |
| 2026-04-28 03:05 | 9.99315 | -84.21102 | 2993 ft | 15 kts | 253° |
| 2026-04-28 03:05 | 9.99320 | -84.21149 | 2993 ft | 5 kts | 304° |
| 2026-04-28 03:05 | 9.99351 | -84.21172 | 2994 ft | 10 kts | 349° |
| 2026-04-28 03:06 | 9.99356 | -84.21173 | 2994 ft | 0 kts | 354° |
| 2026-04-28 03:06 | 9.99378 | -84.21165 | 2995 ft | 6 kts | 40° |
| 2026-04-28 03:06 | 9.99399 | -84.21122 | 2997 ft | 6 kts | 70° |
| 2026-04-28 03:07 | 9.99419 | -84.21068 | 2999 ft | 9 kts | 70° |
| 2026-04-28 03:07 | 9.99445 | -84.20997 | 3002 ft | 11 kts | 69° |
| 2026-04-28 03:07 | 9.99464 | -84.20948 | 3003 ft | 10 kts | 69° |
| 2026-04-28 03:07 | 9.99497 | -84.20860 | 3008 ft | 9 kts | 69° |
| 2026-04-28 03:08 | 9.99511 | -84.20821 | 3008 ft | 9 kts | 69° |
| 2026-04-28 03:08 | 9.99542 | -84.20739 | 3013 ft | 10 kts | 70° |
| 2026-04-28 03:08 | 9.99567 | -84.20670 | 3018 ft | 10 kts | 70° |
| 2026-04-28 03:08 | 9.99593 | -84.20599 | 3024 ft | 10 kts | 68° |
| 2026-04-28 03:09 | 9.99613 | -84.20551 | 3029 ft | 11 kts | 68° |
| 2026-04-28 03:09 | 9.99659 | -84.20426 | 3036 ft | 16 kts | 70° |
| 2026-04-28 03:09 | 9.99680 | -84.20374 | 3039 ft | 5 kts | 57° |
| 2026-04-28 03:09 | 9.99706 | -84.20377 | 3040 ft | 4 kts | 339° |
| 2026-04-28 03:10 | 9.99729 | -84.20385 | 3040 ft | 5 kts | 340° |
| 2026-04-28 03:10 | 9.99737 | -84.20388 | 3041 ft | 0 kts | 340° |